sensor_id;sensor_type;location;lat;lon;timestamp;temperature;humidity
20370;DHT22;10344;47.592;9.600;2022-10-17T00:00:36;12.50;99.90
20370;DHT22;10344;47.592;9.600;2022-10-17T00:03:31;12.60;99.90
20370;DHT22;10344;47.592;9.600;2022-10-17T00:06:10;12.60;99.90
20370;DHT22;10344;47.592;9.600;2022-10-17T00:09:04;12.50;99.90
20370;DHT22;10344;47.592;9.600;2022-10-17T00:11:42;12.50;99.90
20370;DHT22;10344;47.592;9.600;2022-10-17T00:14:13;12.50;99.90
20370;DHT22;10344;47.592;9.600;2022-10-17T00:17:26;12.50;99.90
20370;DHT22;10344;47.592;9.600;2022-10-17T00:20:05;12.50;99.90
20370;DHT22;10344;47.592;9.600;2022-10-17T00:22:50;12.50;99.90
20370;DHT22;10344;47.592;9.600;2022-10-17T00:25:20;12.50;99.90
20370;DHT22;10344;47.592;9.600;2022-10-17T00:27:54;12.50;99.90
20370;DHT22;10344;47.592;9.600;2022-10-17T00:31:09;12.50;99.90
20370;DHT22;10344;47.592;9.600;2022-10-17T00:34:08;12.40;99.90
20370;DHT22;10344;47.592;9.600;2022-10-17T00:36:35;12.40;99.90
20370;DHT22;10344;47.592;9.600;2022-10-17T00:39:09;12.40;99.90
20370;DHT22;10344;47.592;9.600;2022-10-17T00:42:09;12.40;99.90
20370;DHT22;10344;47.592;9.600;2022-10-17T00:50:15;12.20;99.90
20370;DHT22;10344;47.592;9.600;2022-10-17T00:53:04;12.20;99.90
20370;DHT22;10344;47.592;9.600;2022-10-17T00:55:44;12.20;99.90
20370;DHT22;10344;47.592;9.600;2022-10-17T00:58:22;12.10;99.90
20370;DHT22;10344;47.592;9.600;2022-10-17T01:00:56;12.10;99.90
20370;DHT22;10344;47.592;9.600;2022-10-17T01:03:32;12.10;99.90
20370;DHT22;10344;47.592;9.600;2022-10-17T01:06:31;12.00;99.90
20370;DHT22;10344;47.592;9.600;2022-10-17T01:09:06;12.00;99.90
20370;DHT22;10344;47.592;9.600;2022-10-17T01:14:57;12.00;99.90
20370;DHT22;10344;47.592;9.600;2022-10-17T01:31:19;11.50;99.90
20370;DHT22;10344;47.592;9.600;2022-10-17T01:40:34;11.50;99.90
20370;DHT22;10344;47.592;9.600;2022-10-17T01:43:38;11.40;99.90
20370;DHT22;10344;47.592;9.600;2022-10-17T01:46:37;11.40;99.90
20370;DHT22;10344;47.592;9.600;2022-10-17T01:49:25;11.40;99.90
20370;DHT22;10344;47.592;9.600;2022-10-17T01:51:59;11.30;99.90
20370;DHT22;10344;47.592;9.600;2022-10-17T01:55:07;11.20;99.90
20370;DHT22;10344;47.592;9.600;2022-10-17T01:57:49;11.00;99.90
20370;DHT22;10344;47.592;9.600;2022-10-17T02:00:39;11.00;99.90
20370;DHT22;10344;47.592;9.600;2022-10-17T02:03:32;11.00;99.90
20370;DHT22;10344;47.592;9.600;2022-10-17T02:06:20;11.00;99.90
20370;DHT22;10344;47.592;9.600;2022-10-17T02:08:52;11.00;99.90
20370;DHT22;10344;47.592;9.600;2022-10-17T02:11:30;11.00;99.90
20370;DHT22;10344;47.592;9.600;2022-10-17T02:17:07;10.90;99.90
20370;DHT22;10344;47.592;9.600;2022-10-17T02:20:27;10.80;99.90
20370;DHT22;10344;47.592;9.600;2022-10-17T02:24:05;10.70;99.90
20370;DHT22;10344;47.592;9.600;2022-10-17T02:26:30;10.70;99.90
20370;DHT22;10344;47.592;9.600;2022-10-17T02:34:51;10.70;99.90
20370;DHT22;10344;47.592;9.600;2022-10-17T02:37:22;10.60;99.90
20370;DHT22;10344;47.592;9.600;2022-10-17T02:40:06;10.60;99.90
20370;DHT22;10344;47.592;9.600;2022-10-17T02:42:34;10.60;99.90
20370;DHT22;10344;47.592;9.600;2022-10-17T02:45:14;10.70;99.90
20370;DHT22;10344;47.592;9.600;2022-10-17T02:48:17;10.70;99.90
20370;DHT22;10344;47.592;9.600;2022-10-17T02:54:21;10.60;99.90
20370;DHT22;10344;47.592;9.600;2022-10-17T02:57:05;10.50;99.90
20370;DHT22;10344;47.592;9.600;2022-10-17T03:00:00;10.50;99.90
20370;DHT22;10344;47.592;9.600;2022-10-17T03:02:47;10.60;99.90
20370;DHT22;10344;47.592;9.600;2022-10-17T03:05:41;10.50;99.90
20370;DHT22;10344;47.592;9.600;2022-10-17T03:08:31;10.50;99.90
20370;DHT22;10344;47.592;9.600;2022-10-17T03:11:33;10.50;99.90
20370;DHT22;10344;47.592;9.600;2022-10-17T03:14:08;10.40;99.90
20370;DHT22;10344;47.592;9.600;2022-10-17T03:16:56;10.40;99.90
20370;DHT22;10344;47.592;9.600;2022-10-17T03:19:23;10.40;99.90
20370;DHT22;10344;47.592;9.600;2022-10-17T03:22:01;10.40;99.90
20370;DHT22;10344;47.592;9.600;2022-10-17T03:24:50;10.40;99.90
20370;DHT22;10344;47.592;9.600;2022-10-17T03:27:29;10.40;99.90
20370;DHT22;10344;47.592;9.600;2022-10-17T03:30:14;10.30;99.90
20370;DHT22;10344;47.592;9.600;2022-10-17T03:32:56;10.20;99.90
20370;DHT22;10344;47.592;9.600;2022-10-17T03:35:37;10.20;99.90
20370;DHT22;10344;47.592;9.600;2022-10-17T03:38:25;10.20;99.90
20370;DHT22;10344;47.592;9.600;2022-10-17T03:41:24;10.20;99.90
20370;DHT22;10344;47.592;9.600;2022-10-17T03:44:09;10.20;99.90
20370;DHT22;10344;47.592;9.600;2022-10-17T03:46:44;10.30;99.90
20370;DHT22;10344;47.592;9.600;2022-10-17T03:49:23;10.30;99.90
20370;DHT22;10344;47.592;9.600;2022-10-17T03:51:50;10.30;99.90
20370;DHT22;10344;47.592;9.600;2022-10-17T03:54:30;10.30;99.90
20370;DHT22;10344;47.592;9.600;2022-10-17T03:56:59;10.20;99.90
20370;DHT22;10344;47.592;9.600;2022-10-17T03:59:38;10.20;99.90
20370;DHT22;10344;47.592;9.600;2022-10-17T04:02:35;10.10;99.90
20370;DHT22;10344;47.592;9.600;2022-10-17T04:05:14;10.10;99.90
20370;DHT22;10344;47.592;9.600;2022-10-17T04:07:48;10.10;99.90
20370;DHT22;10344;47.592;9.600;2022-10-17T04:10:21;10.00;99.90
20370;DHT22;10344;47.592;9.600;2022-10-17T04:13:00;10.00;99.90
20370;DHT22;10344;47.592;9.600;2022-10-17T04:16:09;10.00;99.90
20370;DHT22;10344;47.592;9.600;2022-10-17T04:18:56;10.00;99.90
20370;DHT22;10344;47.592;9.600;2022-10-17T04:21:31;10.00;99.90
20370;DHT22;10344;47.592;9.600;2022-10-17T04:24:28;9.90;99.90
20370;DHT22;10344;47.592;9.600;2022-10-17T04:27:24;9.90;99.90
20370;DHT22;10344;47.592;9.600;2022-10-17T04:30:05;9.80;99.90
20370;DHT22;10344;47.592;9.600;2022-10-17T04:32:46;9.90;99.90
20370;DHT22;10344;47.592;9.600;2022-10-17T04:35:15;9.80;99.90
20370;DHT22;10344;47.592;9.600;2022-10-17T04:38:13;9.80;99.90
20370;DHT22;10344;47.592;9.600;2022-10-17T04:41:02;9.80;99.90
20370;DHT22;10344;47.592;9.600;2022-10-17T04:44:06;9.80;99.90
20370;DHT22;10344;47.592;9.600;2022-10-17T04:46:40;9.70;99.90
20370;DHT22;10344;47.592;9.600;2022-10-17T04:49:13;9.70;99.90
20370;DHT22;10344;47.592;9.600;2022-10-17T04:52:04;9.70;99.90
20370;DHT22;10344;47.592;9.600;2022-10-17T04:54:34;9.60;99.90
20370;DHT22;10344;47.592;9.600;2022-10-17T04:57:09;9.60;99.90
20370;DHT22;10344;47.592;9.600;2022-10-17T05:00:07;9.60;99.90
20370;DHT22;10344;47.592;9.600;2022-10-17T05:07:44;9.60;99.90
20370;DHT22;10344;47.592;9.600;2022-10-17T05:10:14;9.50;99.90
20370;DHT22;10344;47.592;9.600;2022-10-17T05:12:41;9.50;99.90
20370;DHT22;10344;47.592;9.600;2022-10-17T05:15:11;9.50;99.90
20370;DHT22;10344;47.592;9.600;2022-10-17T05:17:47;9.50;99.90
20370;DHT22;10344;47.592;9.600;2022-10-17T05:20:28;9.50;99.90
20370;DHT22;10344;47.592;9.600;2022-10-17T05:22:57;9.50;99.90
20370;DHT22;10344;47.592;9.600;2022-10-17T05:25:40;9.50;99.90
20370;DHT22;10344;47.592;9.600;2022-10-17T05:28:19;9.60;99.90
20370;DHT22;10344;47.592;9.600;2022-10-17T05:31:26;9.60;99.90
20370;DHT22;10344;47.592;9.600;2022-10-17T05:34:16;9.60;99.90
20370;DHT22;10344;47.592;9.600;2022-10-17T05:37:07;9.60;99.90
20370;DHT22;10344;47.592;9.600;2022-10-17T05:39:57;9.50;99.90
20370;DHT22;10344;47.592;9.600;2022-10-17T07:43:14;14.80;99.90
20370;DHT22;10344;47.592;9.600;2022-10-17T07:45:40;16.50;99.90
20370;DHT22;10344;47.592;9.600;2022-10-17T07:48:06;18.40;99.90
20370;DHT22;10344;47.592;9.600;2022-10-17T07:50:32;20.00;99.90
20370;DHT22;10344;47.592;9.600;2022-10-17T07:52:57;21.40;99.90
20370;DHT22;10344;47.592;9.600;2022-10-17T07:55:23;22.40;99.90
20370;DHT22;10344;47.592;9.600;2022-10-17T07:57:51;23.20;99.90
20370;DHT22;10344;47.592;9.600;2022-10-17T08:00:18;23.90;99.90
20370;DHT22;10344;47.592;9.600;2022-10-17T08:02:44;24.50;99.90
20370;DHT22;10344;47.592;9.600;2022-10-17T08:05:10;24.80;99.90
20370;DHT22;10344;47.592;9.600;2022-10-17T08:07:35;24.90;99.90
20370;DHT22;10344;47.592;9.600;2022-10-17T08:10:01;25.00;99.90
20370;DHT22;10344;47.592;9.600;2022-10-17T08:12:27;25.00;99.90
20370;DHT22;10344;47.592;9.600;2022-10-17T08:14:56;25.40;99.90
20370;DHT22;10344;47.592;9.600;2022-10-17T08:17:21;25.30;99.90
20370;DHT22;10344;47.592;9.600;2022-10-17T08:19:47;25.00;99.90
20370;DHT22;10344;47.592;9.600;2022-10-17T08:22:13;25.40;99.90
20370;DHT22;10344;47.592;9.600;2022-10-17T08:24:38;25.00;99.90
20370;DHT22;10344;47.592;9.600;2022-10-17T08:27:07;24.30;99.90
20370;DHT22;10344;47.592;9.600;2022-10-17T08:29:39;24.10;99.90
20370;DHT22;10344;47.592;9.600;2022-10-17T08:32:05;23.90;99.90
20370;DHT22;10344;47.592;9.600;2022-10-17T08:34:31;24.30;99.90
20370;DHT22;10344;47.592;9.600;2022-10-17T08:36:57;24.10;99.90
20370;DHT22;10344;47.592;9.600;2022-10-17T08:39:22;23.50;99.90
20370;DHT22;10344;47.592;9.600;2022-10-17T08:47:04;24.30;99.90
20370;DHT22;10344;47.592;9.600;2022-10-17T08:49:37;24.50;99.90
20370;DHT22;10344;47.592;9.600;2022-10-17T08:52:09;24.90;99.90
20370;DHT22;10344;47.592;9.600;2022-10-17T08:54:45;24.80;99.90
20370;DHT22;10344;47.592;9.600;2022-10-17T08:57:13;24.60;99.90
20370;DHT22;10344;47.592;9.600;2022-10-17T08:59:40;24.50;99.90
20370;DHT22;10344;47.592;9.600;2022-10-17T09:02:41;23.90;99.90
20370;DHT22;10344;47.592;9.600;2022-10-17T09:05:29;23.90;99.90
20370;DHT22;10344;47.592;9.600;2022-10-17T09:08:01;23.50;99.90
20370;DHT22;10344;47.592;9.600;2022-10-17T09:10:53;23.30;99.90
20370;DHT22;10344;47.592;9.600;2022-10-17T09:16:24;23.60;99.90
20370;DHT22;10344;47.592;9.600;2022-10-17T09:19:28;23.70;99.90
20370;DHT22;10344;47.592;9.600;2022-10-17T09:22:05;24.10;99.90
20370;DHT22;10344;47.592;9.600;2022-10-17T09:24:57;24.40;99.90
20370;DHT22;10344;47.592;9.600;2022-10-17T09:27:37;24.50;99.90
20370;DHT22;10344;47.592;9.600;2022-10-17T09:30:32;24.50;99.90
20370;DHT22;10344;47.592;9.600;2022-10-17T09:32:58;24.30;99.90
20370;DHT22;10344;47.592;9.600;2022-10-17T09:35:24;24.30;99.90
20370;DHT22;10344;47.592;9.600;2022-10-17T09:37:52;24.00;99.90
20370;DHT22;10344;47.592;9.600;2022-10-17T09:40:26;23.80;99.90
20370;DHT22;10344;47.592;9.600;2022-10-17T09:42:55;23.40;99.90
20370;DHT22;10344;47.592;9.600;2022-10-17T09:45:23;23.30;99.90
20370;DHT22;10344;47.592;9.600;2022-10-17T09:50:39;23.00;99.90
20370;DHT22;10344;47.592;9.600;2022-10-17T09:53:28;22.80;99.90
20370;DHT22;10344;47.592;9.600;2022-10-17T09:56:01;22.70;99.90
20370;DHT22;10344;47.592;9.600;2022-10-17T10:01:28;21.50;99.90
20370;DHT22;10344;47.592;9.600;2022-10-17T10:04:23;20.90;99.90
20370;DHT22;10344;47.592;9.600;2022-10-17T10:07:04;20.60;99.90
20370;DHT22;10344;47.592;9.600;2022-10-17T10:09:32;20.40;99.90
20370;DHT22;10344;47.592;9.600;2022-10-17T10:12:05;20.40;99.90
20370;DHT22;10344;47.592;9.600;2022-10-17T10:15:06;20.40;99.90
20370;DHT22;10344;47.592;9.600;2022-10-17T10:17:47;20.40;99.90
20370;DHT22;10344;47.592;9.600;2022-10-17T10:20:34;20.80;99.90
20370;DHT22;10344;47.592;9.600;2022-10-17T10:23:14;21.40;99.90
20370;DHT22;10344;47.592;9.600;2022-10-17T10:26:21;21.90;99.90
20370;DHT22;10344;47.592;9.600;2022-10-17T10:31:37;21.30;99.90
20370;DHT22;10344;47.592;9.600;2022-10-17T10:34:25;20.70;99.90
20370;DHT22;10344;47.592;9.600;2022-10-17T10:36:53;20.30;99.90
20370;DHT22;10344;47.592;9.600;2022-10-17T10:39:29;20.10;99.90
20370;DHT22;10344;47.592;9.600;2022-10-17T10:41:59;20.30;99.90
20370;DHT22;10344;47.592;9.600;2022-10-17T10:44:29;20.20;99.90
20370;DHT22;10344;47.592;9.600;2022-10-17T10:47:31;20.20;99.90
20370;DHT22;10344;47.592;9.600;2022-10-17T10:56:24;20.30;99.90
20370;DHT22;10344;47.592;9.600;2022-10-17T10:59:01;20.40;99.90
20370;DHT22;10344;47.592;9.600;2022-10-17T11:07:09;20.90;99.90
20370;DHT22;10344;47.592;9.600;2022-10-17T11:12:33;21.30;99.90
20370;DHT22;10344;47.592;9.600;2022-10-17T11:15:15;21.30;99.90
20370;DHT22;10344;47.592;9.600;2022-10-17T11:20:31;21.90;99.90
20370;DHT22;10344;47.592;9.600;2022-10-17T11:23:27;21.80;99.90
20370;DHT22;10344;47.592;9.600;2022-10-17T11:25:52;22.00;99.90
20370;DHT22;10344;47.592;9.600;2022-10-17T11:28:21;22.10;99.90
20370;DHT22;10344;47.592;9.600;2022-10-17T11:33:45;22.00;99.90
20370;DHT22;10344;47.592;9.600;2022-10-17T11:36:12;22.00;99.90
20370;DHT22;10344;47.592;9.600;2022-10-17T11:38:52;22.00;99.90
20370;DHT22;10344;47.592;9.600;2022-10-17T11:44:35;22.30;99.90
20370;DHT22;10344;47.592;9.600;2022-10-17T11:47:35;22.20;99.90
20370;DHT22;10344;47.592;9.600;2022-10-17T11:55:40;21.50;99.90
20370;DHT22;10344;47.592;9.600;2022-10-17T12:01:08;21.50;99.90
20370;DHT22;10344;47.592;9.600;2022-10-17T12:06:19;21.50;99.90
20370;DHT22;10344;47.592;9.600;2022-10-17T12:11:53;21.70;99.90
20370;DHT22;10344;47.592;9.600;2022-10-17T12:14:43;21.90;99.90
20370;DHT22;10344;47.592;9.600;2022-10-17T12:20:23;21.90;99.90
20370;DHT22;10344;47.592;9.600;2022-10-17T12:22:52;22.00;99.90
20370;DHT22;10344;47.592;9.600;2022-10-17T12:27:49;21.80;99.90
20370;DHT22;10344;47.592;9.600;2022-10-17T12:30:18;21.60;99.90
20370;DHT22;10344;47.592;9.600;2022-10-17T12:35:30;22.00;99.90
20370;DHT22;10344;47.592;9.600;2022-10-17T12:38:01;22.10;99.90
20370;DHT22;10344;47.592;9.600;2022-10-17T12:43:00;21.70;99.90
20370;DHT22;10344;47.592;9.600;2022-10-17T12:48:09;21.50;99.90
20370;DHT22;10344;47.592;9.600;2022-10-17T12:53:52;21.10;99.90
20370;DHT22;10344;47.592;9.600;2022-10-17T12:59:23;20.60;99.90
20370;DHT22;10344;47.592;9.600;2022-10-17T13:01:52;20.30;99.90
20370;DHT22;10344;47.592;9.600;2022-10-17T13:04:19;20.20;99.90
20370;DHT22;10344;47.592;9.600;2022-10-17T13:06:54;20.00;99.90
20370;DHT22;10344;47.592;9.600;2022-10-17T13:09:31;20.00;99.90
20370;DHT22;10344;47.592;9.600;2022-10-17T13:12:00;20.00;99.90
20370;DHT22;10344;47.592;9.600;2022-10-17T13:14:27;20.10;99.90
20370;DHT22;10344;47.592;9.600;2022-10-17T13:16:59;20.10;99.90
20370;DHT22;10344;47.592;9.600;2022-10-17T13:19:40;20.00;99.90
20370;DHT22;10344;47.592;9.600;2022-10-17T13:22:28;20.00;99.90
20370;DHT22;10344;47.592;9.600;2022-10-17T13:25:15;20.00;99.90
20370;DHT22;10344;47.592;9.600;2022-10-17T13:27:41;19.90;99.90
20370;DHT22;10344;47.592;9.600;2022-10-17T13:30:26;19.80;99.90
20370;DHT22;10344;47.592;9.600;2022-10-17T13:32:54;19.80;99.90
20370;DHT22;10344;47.592;9.600;2022-10-17T13:35:32;19.70;99.90
20370;DHT22;10344;47.592;9.600;2022-10-17T13:38:01;19.50;99.90
20370;DHT22;10344;47.592;9.600;2022-10-17T13:40:29;19.60;99.90
20370;DHT22;10344;47.592;9.600;2022-10-17T13:42:57;19.50;99.90
20370;DHT22;10344;47.592;9.600;2022-10-17T13:45:30;19.60;99.90
20370;DHT22;10344;47.592;9.600;2022-10-17T13:48:02;19.70;99.90
20370;DHT22;10344;47.592;9.600;2022-10-17T13:50:35;19.70;99.90
20370;DHT22;10344;47.592;9.600;2022-10-17T13:55:32;19.50;99.90
20370;DHT22;10344;47.592;9.600;2022-10-17T13:58:17;19.50;99.90
20370;DHT22;10344;47.592;9.600;2022-10-17T14:00:46;19.60;99.90
20370;DHT22;10344;47.592;9.600;2022-10-17T14:03:14;19.70;99.90
20370;DHT22;10344;47.592;9.600;2022-10-17T14:06:20;19.50;99.90
20370;DHT22;10344;47.592;9.600;2022-10-17T14:09:05;19.40;99.90
20370;DHT22;10344;47.592;9.600;2022-10-17T14:11:39;19.50;99.90
20370;DHT22;10344;47.592;9.600;2022-10-17T14:14:15;19.80;99.90
20370;DHT22;10344;47.592;9.600;2022-10-17T14:16:42;19.90;99.90
20370;DHT22;10344;47.592;9.600;2022-10-17T14:19:34;20.00;99.90
20370;DHT22;10344;47.592;9.600;2022-10-17T14:24:50;19.90;99.90
20370;DHT22;10344;47.592;9.600;2022-10-17T14:29:58;19.50;99.90
20370;DHT22;10344;47.592;9.600;2022-10-17T14:32:30;19.40;99.90
20370;DHT22;10344;47.592;9.600;2022-10-17T14:35:01;19.30;99.90
20370;DHT22;10344;47.592;9.600;2022-10-17T14:37:39;19.30;99.90
20370;DHT22;10344;47.592;9.600;2022-10-17T14:40:05;19.40;99.90
20370;DHT22;10344;47.592;9.600;2022-10-17T14:42:38;19.40;99.90
20370;DHT22;10344;47.592;9.600;2022-10-17T14:45:11;19.40;99.90
20370;DHT22;10344;47.592;9.600;2022-10-17T14:47:38;19.40;99.90
20370;DHT22;10344;47.592;9.600;2022-10-17T14:50:21;19.40;99.90
20370;DHT22;10344;47.592;9.600;2022-10-17T14:55:33;19.40;99.90
20370;DHT22;10344;47.592;9.600;2022-10-17T14:58:13;19.40;99.90
20370;DHT22;10344;47.592;9.600;2022-10-17T15:00:39;19.40;99.90
20370;DHT22;10344;47.592;9.600;2022-10-17T15:03:05;19.40;99.90
20370;DHT22;10344;47.592;9.600;2022-10-17T15:05:30;19.40;99.90
20370;DHT22;10344;47.592;9.600;2022-10-17T15:07:56;19.40;99.90
20370;DHT22;10344;47.592;9.600;2022-10-17T15:10:32;19.50;99.90
20370;DHT22;10344;47.592;9.600;2022-10-17T15:12:59;19.50;99.90
20370;DHT22;10344;47.592;9.600;2022-10-17T15:15:26;19.40;99.90
20370;DHT22;10344;47.592;9.600;2022-10-17T15:17:52;19.30;99.90
20370;DHT22;10344;47.592;9.600;2022-10-17T15:20:17;19.30;99.90
20370;DHT22;10344;47.592;9.600;2022-10-17T15:22:44;19.30;99.90
20370;DHT22;10344;47.592;9.600;2022-10-17T15:25:10;19.20;99.90
20370;DHT22;10344;47.592;9.600;2022-10-17T15:27:35;19.20;99.90
20370;DHT22;10344;47.592;9.600;2022-10-17T15:30:05;19.10;99.90
20370;DHT22;10344;47.592;9.600;2022-10-17T15:32:35;19.10;99.90
20370;DHT22;10344;47.592;9.600;2022-10-17T15:35:01;19.00;99.90
20370;DHT22;10344;47.592;9.600;2022-10-17T15:37:32;18.80;99.90
20370;DHT22;10344;47.592;9.600;2022-10-17T15:39:58;18.70;99.90
20370;DHT22;10344;47.592;9.600;2022-10-17T15:42:28;18.60;99.90
20370;DHT22;10344;47.592;9.600;2022-10-17T15:44:54;18.50;99.90
20370;DHT22;10344;47.592;9.600;2022-10-17T15:47:31;18.40;99.90
20370;DHT22;10344;47.592;9.600;2022-10-17T15:50:01;18.30;99.90
20370;DHT22;10344;47.592;9.600;2022-10-17T15:52:26;18.20;99.90
20370;DHT22;10344;47.592;9.600;2022-10-17T15:54:53;18.10;99.90
20370;DHT22;10344;47.592;9.600;2022-10-17T15:57:21;18.00;99.90
20370;DHT22;10344;47.592;9.600;2022-10-17T15:59:48;18.00;99.90
20370;DHT22;10344;47.592;9.600;2022-10-17T16:02:16;17.90;99.90
20370;DHT22;10344;47.592;9.600;2022-10-17T16:04:42;17.80;99.90
20370;DHT22;10344;47.592;9.600;2022-10-17T16:07:08;17.80;99.90
20370;DHT22;10344;47.592;9.600;2022-10-17T16:09:36;17.70;99.90
20370;DHT22;10344;47.592;9.600;2022-10-17T16:12:04;17.70;99.90
20370;DHT22;10344;47.592;9.600;2022-10-17T16:14:30;17.60;99.90
20370;DHT22;10344;47.592;9.600;2022-10-17T16:16:59;17.50;99.90
20370;DHT22;10344;47.592;9.600;2022-10-17T16:19:25;17.40;99.90
20370;DHT22;10344;47.592;9.600;2022-10-17T16:21:55;17.30;99.90
20370;DHT22;10344;47.592;9.600;2022-10-17T16:24:21;17.20;99.90
20370;DHT22;10344;47.592;9.600;2022-10-17T16:26:47;17.10;99.90
20370;DHT22;10344;47.592;9.600;2022-10-17T16:29:12;17.00;99.90
20370;DHT22;10344;47.592;9.600;2022-10-17T16:31:41;16.90;99.90
20370;DHT22;10344;47.592;9.600;2022-10-17T16:34:07;16.80;99.90
20370;DHT22;10344;47.592;9.600;2022-10-17T16:36:33;16.80;99.90
20370;DHT22;10344;47.592;9.600;2022-10-17T16:39:02;16.70;99.90
20370;DHT22;10344;47.592;9.600;2022-10-17T16:41:46;16.60;99.90
20370;DHT22;10344;47.592;9.600;2022-10-17T16:44:11;16.50;99.90
20370;DHT22;10344;47.592;9.600;2022-10-17T16:46:40;16.40;99.90
20370;DHT22;10344;47.592;9.600;2022-10-17T16:49:08;16.20;99.90
20370;DHT22;10344;47.592;9.600;2022-10-17T16:51:34;16.10;99.90
20370;DHT22;10344;47.592;9.600;2022-10-17T16:54:00;16.00;99.90
20370;DHT22;10344;47.592;9.600;2022-10-17T16:56:29;15.90;99.90
20370;DHT22;10344;47.592;9.600;2022-10-17T16:58:59;15.80;99.90
20370;DHT22;10344;47.592;9.600;2022-10-17T17:01:26;15.70;99.90
20370;DHT22;10344;47.592;9.600;2022-10-17T17:03:54;15.60;99.90
20370;DHT22;10344;47.592;9.600;2022-10-17T17:06:29;15.50;99.90
20370;DHT22;10344;47.592;9.600;2022-10-17T17:08:55;15.40;99.90
20370;DHT22;10344;47.592;9.600;2022-10-17T17:11:24;15.30;99.90
20370;DHT22;10344;47.592;9.600;2022-10-17T17:13:51;15.30;99.90
20370;DHT22;10344;47.592;9.600;2022-10-17T17:16:20;15.30;99.90
20370;DHT22;10344;47.592;9.600;2022-10-17T17:18:48;15.20;99.90
20370;DHT22;10344;47.592;9.600;2022-10-17T17:21:17;15.10;99.90
20370;DHT22;10344;47.592;9.600;2022-10-17T17:23:45;15.10;99.90
20370;DHT22;10344;47.592;9.600;2022-10-17T17:26:19;15.00;99.90
20370;DHT22;10344;47.592;9.600;2022-10-17T17:29:11;15.00;99.90
20370;DHT22;10344;47.592;9.600;2022-10-17T17:31:38;14.90;99.90
20370;DHT22;10344;47.592;9.600;2022-10-17T17:34:11;14.90;99.90
20370;DHT22;10344;47.592;9.600;2022-10-17T17:36:37;14.90;99.90
20370;DHT22;10344;47.592;9.600;2022-10-17T17:39:11;14.80;99.90
20370;DHT22;10344;47.592;9.600;2022-10-17T17:41:43;14.80;99.90
20370;DHT22;10344;47.592;9.600;2022-10-17T17:44:13;14.70;99.90
20370;DHT22;10344;47.592;9.600;2022-10-17T17:46:41;14.70;99.90
20370;DHT22;10344;47.592;9.600;2022-10-17T17:49:08;14.70;99.90
20370;DHT22;10344;47.592;9.600;2022-10-17T17:51:36;14.70;99.90
20370;DHT22;10344;47.592;9.600;2022-10-17T17:54:03;14.60;99.90
20370;DHT22;10344;47.592;9.600;2022-10-17T17:56:51;14.50;99.90
20370;DHT22;10344;47.592;9.600;2022-10-17T17:59:18;14.40;99.90
20370;DHT22;10344;47.592;9.600;2022-10-17T18:11:13;14.20;99.90
20370;DHT22;10344;47.592;9.600;2022-10-17T18:13:39;14.20;99.90
20370;DHT22;10344;47.592;9.600;2022-10-17T18:16:06;14.30;99.90
20370;DHT22;10344;47.592;9.600;2022-10-17T18:18:39;14.20;99.90
20370;DHT22;10344;47.592;9.600;2022-10-17T18:21:05;14.20;99.90
20370;DHT22;10344;47.592;9.600;2022-10-17T18:23:31;14.10;99.90
20370;DHT22;10344;47.592;9.600;2022-10-17T18:26:00;14.20;99.90
20370;DHT22;10344;47.592;9.600;2022-10-17T18:28:26;14.30;99.90
20370;DHT22;10344;47.592;9.600;2022-10-17T18:30:52;14.30;99.90
20370;DHT22;10344;47.592;9.600;2022-10-17T18:33:17;14.30;99.90
20370;DHT22;10344;47.592;9.600;2022-10-17T18:35:43;14.30;99.90
20370;DHT22;10344;47.592;9.600;2022-10-17T18:38:08;14.30;99.90
20370;DHT22;10344;47.592;9.600;2022-10-17T18:40:34;14.30;99.90
20370;DHT22;10344;47.592;9.600;2022-10-17T18:43:00;14.30;99.90
20370;DHT22;10344;47.592;9.600;2022-10-17T18:45:25;14.30;99.90
20370;DHT22;10344;47.592;9.600;2022-10-17T18:47:51;14.20;99.90
20370;DHT22;10344;47.592;9.600;2022-10-17T18:50:20;14.20;99.90
20370;DHT22;10344;47.592;9.600;2022-10-17T18:52:46;14.20;99.90
20370;DHT22;10344;47.592;9.600;2022-10-17T18:55:13;14.20;99.90
20370;DHT22;10344;47.592;9.600;2022-10-17T18:57:41;14.10;99.90
20370;DHT22;10344;47.592;9.600;2022-10-17T19:00:07;14.10;99.90
20370;DHT22;10344;47.592;9.600;2022-10-17T19:02:34;14.10;99.90
20370;DHT22;10344;47.592;9.600;2022-10-17T19:05:00;14.00;99.90
20370;DHT22;10344;47.592;9.600;2022-10-17T19:07:26;14.00;99.90
20370;DHT22;10344;47.592;9.600;2022-10-17T19:09:51;14.00;99.90
20370;DHT22;10344;47.592;9.600;2022-10-17T19:12:17;13.90;99.90
20370;DHT22;10344;47.592;9.600;2022-10-17T19:14:43;13.90;99.90
20370;DHT22;10344;47.592;9.600;2022-10-17T19:17:10;13.90;99.90
20370;DHT22;10344;47.592;9.600;2022-10-17T19:19:36;13.80;99.90
20370;DHT22;10344;47.592;9.600;2022-10-17T19:22:01;13.70;99.90
20370;DHT22;10344;47.592;9.600;2022-10-17T19:24:28;13.70;99.90
20370;DHT22;10344;47.592;9.600;2022-10-17T19:26:57;13.60;99.90
20370;DHT22;10344;47.592;9.600;2022-10-17T19:29:32;13.60;99.90
20370;DHT22;10344;47.592;9.600;2022-10-17T19:31:59;13.50;99.90
20370;DHT22;10344;47.592;9.600;2022-10-17T19:34:25;13.50;99.90
20370;DHT22;10344;47.592;9.600;2022-10-17T19:36:54;13.50;99.90
20370;DHT22;10344;47.592;9.600;2022-10-17T19:39:21;13.50;99.90
20370;DHT22;10344;47.592;9.600;2022-10-17T19:41:50;13.50;99.90
20370;DHT22;10344;47.592;9.600;2022-10-17T19:44:16;13.50;99.90
20370;DHT22;10344;47.592;9.600;2022-10-17T19:46:42;13.40;99.90
20370;DHT22;10344;47.592;9.600;2022-10-17T19:49:11;13.50;99.90
20370;DHT22;10344;47.592;9.600;2022-10-17T19:51:38;13.50;99.90
20370;DHT22;10344;47.592;9.600;2022-10-17T19:54:04;13.50;99.90
20370;DHT22;10344;47.592;9.600;2022-10-17T19:56:33;13.50;99.90
20370;DHT22;10344;47.592;9.600;2022-10-17T19:59:03;13.50;99.90
20370;DHT22;10344;47.592;9.600;2022-10-17T20:01:31;13.50;99.90
20370;DHT22;10344;47.592;9.600;2022-10-17T20:04:00;13.50;99.90
20370;DHT22;10344;47.592;9.600;2022-10-17T20:06:26;13.50;99.90
20370;DHT22;10344;47.592;9.600;2022-10-17T20:08:51;13.50;99.90
20370;DHT22;10344;47.592;9.600;2022-10-17T20:11:21;13.50;99.90
20370;DHT22;10344;47.592;9.600;2022-10-17T20:13:50;13.50;99.90
20370;DHT22;10344;47.592;9.600;2022-10-17T20:16:23;13.50;99.90
20370;DHT22;10344;47.592;9.600;2022-10-17T20:18:53;13.50;99.90
20370;DHT22;10344;47.592;9.600;2022-10-17T20:21:30;13.40;99.90
20370;DHT22;10344;47.592;9.600;2022-10-17T20:23:59;13.40;99.90
20370;DHT22;10344;47.592;9.600;2022-10-17T20:26:26;13.30;99.90
20370;DHT22;10344;47.592;9.600;2022-10-17T20:28:52;13.20;99.90
20370;DHT22;10344;47.592;9.600;2022-10-17T20:31:21;13.20;99.90
20370;DHT22;10344;47.592;9.600;2022-10-17T20:33:47;13.20;99.90
20370;DHT22;10344;47.592;9.600;2022-10-17T20:36:18;13.10;99.90
20370;DHT22;10344;47.592;9.600;2022-10-17T20:38:56;13.10;99.90
20370;DHT22;10344;47.592;9.600;2022-10-17T20:41:24;13.10;99.90